Data for 02/03/2005

Time Sea-Level Adjusted Pressure Absolute Pressure Temperature Relative Humidity Dew Point   
(mb) (inHg) (mb) (inHg) (C) (F) (%) (C) (F)
00:05 1028 30.36 857 25.31 3 37.3 52 -5.9 21.3
00:10 1028 30.36 857 25.31 2.8 37.1 54 -5.6 22
00:15 1028 30.36 857 25.31 2.7 36.9 53 -5.9 21.4
00:20 1028 30.36 857 25.31 2.8 37 53 -5.8 21.6
00:25 1028 30.36 857 25.31 2.8 37.1 52 -5.9 21.3
00:30 1028 30.36 857 25.31 2.8 37 53 -5.9 21.4
00:35 1028 30.36 857 25.31 3.1 37.6 51 -6.1 21
00:40 1028 30.36 857 25.31 3.1 37.5 52 -6 21.3
00:45 1028 30.36 857 25.31 3.1 37.7 52 -5.7 21.7
00:50 1028 30.36 857 25.31 2.8 37.1 53 -5.7 21.7
00:55 1028 30.36 857 25.31 2.7 36.8 55 -5.4 22.3
01:00 1028 30.36 857 25.31 2.4 36.3 55 -5.8 21.5
01:05 1028 30.36 857 25.31 2.1 35.8 56 -5.8 21.6
01:10 1028 30.36 857 25.31 2.1 35.7 55 -6 21.2
01:15 1028 30.36 857 25.31 2.2 36 54 -6 21.1
01:20 1028 30.36 857 25.31 2.4 36.2 54 -6.1 21.1
01:25 1028 30.36 857 25.31 2.4 36.3 54 -6.1 21
01:30 1028 30.36 857 25.31 2.3 36.2 54 -6.1 21
01:35 1028 30.36 857 25.31 2.1 35.8 54 -6.2 20.9
01:40 1028 30.36 857 25.31 1.8 35.2 56 -6.1 21
01:45 1028 30.36 857 25.31 1.5 34.6 58 -6 21.2
01:50 1028 30.36 857 25.31 1.1 34 59 -6.1 21.1
01:55 1028 30.36 857 25.31 1.2 34.1 59 -5.9 21.3
02:00 1028 30.36 857 25.31 0.9 33.7 60 -5.9 21.4
02:05 1028 30.36 857 25.31 1.1 33.9 59 -6.2 20.9
02:10 1028 30.36 857 25.31 1.2 34.2 58 -6.1 21
02:15 1028 30.36 857 25.31 1.4 34.5 58 -6.1 21
02:20 1028 30.36 857 25.31 1.4 34.5 58 -6.1 21.1
02:25 1028 30.36 857 25.31 1.4 34.6 57 -6.2 20.8
02:30 1028 30.36 857 25.31 1.6 34.9 56 -6.3 20.6
02:35 1028 30.36 857 25.31 1.4 34.5 58 -6 21.3
02:40 1028 30.36 857 25.31 0.7 33.3 60 -6 21.1
02:45 1028 30.36 857 25.31 1 33.8 58 -6.3 20.6
02:50 1028 30.36 857 25.31 1.1 34 58 -6.2 20.8
02:55 1028 30.36 857 25.31 1 33.8 58 -6.3 20.7
03:00 1028 30.36 857 25.31 0.7 33.2 59 -6.4 20.5
03:05 1028 30.36 857 25.31 1.1 33.9 57 -6.6 20.2
03:10 1028 30.36 857 25.31 1.8 35.2 54 -6.6 20.1
03:15 1028 30.36 857 25.31 2 35.6 54 -6.2 20.8
03:20 1028 30.36 857 25.31 1.7 35 57 -6.1 21.1
03:25 1028 30.36 857 25.31 0.9 33.7 61 -5.8 21.6
03:30 1028 30.36 857 25.31 0.8 33.5 60 -6.2 20.9
03:35 1028 30.36 857 25.31 1.5 34.7 58 -5.8 21.6
03:40 1028 30.36 857 25.31 1.7 35.1 56 -6.2 20.8
03:45 1028 30.36 857 25.31 2.2 36 52 -6.6 20.2
03:50 1028 30.36 857 25.31 2.5 36.5 52 -6.4 20.4
03:55 1028 30.36 857 25.31 2.7 36.9 52 -6.3 20.7
04:00 1028 30.36 857 25.31 2.2 35.9 55 -5.9 21.4
04:05 1028 30.36 857 25.31 2.2 35.9 53 -6.5 20.3
04:10 1028 30.36 857 25.31 2.4 36.2 53 -6.3 20.7
04:15 1028 30.36 857 25.31 1.9 35.5 55 -6.2 20.8
04:20 1028 30.36 857 25.31 2 35.5 54 -6.5 20.3
04:25 1028 30.36 857 25.31 1.9 35.5 53 -6.7 19.9
04:30 1028 30.36 857 25.31 2.2 35.9 53 -6.4 20.4
04:35 1028 30.36 857 25.31 3 37.5 49 -6.7 19.9
04:40 1028 30.36 857 25.31 3.1 37.5 50 -6.4 20.5
04:45 1028 30.36 857 25.31 2.9 37.2 48 -7 19.3
04:50 1028 30.36 857 25.31 3.1 37.6 47 -7.1 19.2
04:55 1028 30.36 857 25.31 2.9 37.3 47 -7.3 18.9
05:00 1028 30.36 857 25.31 2.4 36.3 49 -7.2 19
05:05 1028 30.36 857 25.31 1.9 35.5 50 -7.4 18.7
05:10 1028 30.36 857 25.31 2 35.6 50 -7.5 18.5
05:15 1028 30.36 857 25.31 2 35.5 50 -7.5 18.6
05:20 1028 30.36 857 25.31 1.5 34.7 51 -7.5 18.5
05:25 1028 30.36 857 25.31 1.7 35 51 -7.4 18.7
05:30 1028 30.36 857 25.31 1.3 34.3 54 -7.1 19.2
05:35 1028 30.36 857 25.31 0.8 33.5 55 -7.2 19.1
05:40 1028 30.36 857 25.31 0.9 33.7 55 -7.1 19.2
05:45 1028 30.36 857 25.31 0.9 33.7 55 -7.1 19.2
05:50 1028 30.36 857 25.31 0.6 33.2 56 -7.2 19
05:55 1028 30.36 857 25.31 0.8 33.4 55 -7.3 18.8
06:00 1028 30.36 857 25.31 1.1 34 54 -7.2 19
06:05 1028 30.36 857 25.31 1.1 33.9 54 -7.1 19.2
06:10 1028 30.36 857 25.31 1 33.8 55 -7 19.4
06:15 1028 30.36 857 25.31 0.7 33.2 57 -7 19.5
06:20 1028 30.36 857 25.31 0.9 33.6 55 -7.3 18.9
06:25 1028 30.36 857 25.31 1.3 34.4 53 -7.2 19
06:30 1028 30.36 857 25.31 0.9 33.6 54 -7.3 18.9
06:35 1028 30.36 857 25.31 1 33.8 54 -7.3 18.8
06:40 1028 30.36 857 25.31 0.9 33.6 54 -7.4 18.7
06:45 1028 30.36 857 25.31 1 33.9 54 -7.3 18.8
06:50 1028 30.36 857 25.31 0.9 33.6 54 -7.3 18.8
06:55 1028 30.36 857 25.31 0.8 33.4 54 -7.5 18.6
07:00 1028 30.36 857 25.31 0.9 33.5 55 -7.3 18.9
07:05 1028 30.36 857 25.31 0.7 33.2 55 -7.3 18.8
07:10 1028 30.36 857 25.31 0.7 33.2 55 -7.3 18.9
07:15 1028 30.36 857 25.31 0.4 32.8 56 -7.4 18.7
07:20 1028 30.36 857 25.31 0.6 33 54 -7.6 18.3
07:25 1028 30.36 857 25.31 0.8 33.5 53 -7.6 18.3
07:30 1028 30.36 857 25.31 0.6 33 58 -6.8 19.7
07:35 1028 30.36 857 25.31 -0.1 31.8 58 -7.5 18.4
07:40 1028 30.36 857 25.31 0.2 32.4 56 -7.6 18.2
07:45 1028 30.36 857 25.31 0.7 33.3 54 -7.5 18.5
07:50 1028 30.36 857 25.31 1.1 33.9 53 -7.4 18.7
07:55 1028 30.36 857 25.31 0.8 33.4 53 -7.6 18.3
08:00 1028 30.36 857 25.31 0.9 33.5 52 -8 17.6
08:05 1028 30.36 857 25.31 0.9 33.6 53 -7.7 18.2
08:10 1028 30.36 857 25.31 0.7 33.3 51 -8.2 17.2
08:15 1028 30.36 857 25.31 1.2 34.1 50 -8 17.6
08:20 1028 30.36 857 25.31 1.3 34.4 49 -8.3 17
08:25 1028 30.36 857 25.31 1.9 35.4 47 -8.2 17.2
08:30 1028 30.36 857 25.31 2.1 35.8 47 -8 17.6
08:35 1028 30.36 857 25.31 1.8 35.2 49 -7.9 17.7
08:40 1028 30.36 857 25.31 1.9 35.4 48 -7.9 17.8
08:45 1028 30.36 857 25.31 1.9 35.4 49 -7.8 17.9
08:50 1028 30.36 857 25.31 2.3 36.2 47 -7.8 17.9
08:55 1028 30.36 857 25.31 2.6 36.7 47 -7.7 18.2
09:00 1028 30.36 857 25.31 2.8 37 46 -7.8 18
09:05 1028 30.36 857 25.31 2.8 37 47 -7.4 18.7
09:10 1028 30.36 857 25.31 2.7 36.9 48 -7.3 18.9
09:15 1028 30.36 857 25.31 3.2 37.7 46 -7.5 18.5
09:20 1028 30.36 857 25.31 3.8 38.8 44 -7.4 18.8
09:25 1028 30.36 857 25.31 4 39.1 44 -7.4 18.8
09:30 1027 30.33 857 25.31 4.3 39.7 42 -7.4 18.6
09:35 1027 30.33 857 25.31 5.3 41.6 40 -7.1 19.2
09:40 1028 30.36 857 25.31 5.6 42.1 40 -6.9 19.7
09:45 1028 30.36 857 25.31 5.5 42 40 -7 19.5
09:50 1028 30.36 857 25.31 5.5 41.9 40 -6.9 19.5
09:55 1027 30.33 857 25.31 5.4 41.7 40 -7.1 19.2
10:00 1027 30.33 857 25.31 5.4 41.7 39 -7.3 18.8
10:05 1028 30.36 857 25.31 6.3 43.3 36 -7.6 18.2
10:10 1028 30.36 857 25.31 6.6 43.9 35 -7.6 18.3
10:15 1027 30.33 857 25.31 7 44.6 35 -7.4 18.7
10:20 1027 30.33 857 25.31 7.2 44.9 35 -7.2 19.1
10:25 1027 30.33 857 25.31 7.9 46.3 32 -7.7 18.2
10:30 1027 30.33 857 25.31 8 46.5 33 -7.4 18.8
10:35 1027 30.33 857 25.31 8 46.3 33 -7.5 18.6
10:40 1027 30.33 857 25.31 8.2 46.8 33 -7.2 19.1
10:45 1027 30.33 857 25.31 8.4 47 32 -7.4 18.7
10:50 1027 30.33 857 25.31 9.3 48.8 30 -7.3 18.8
10:55 1027 30.33 857 25.31 9.6 49.3 30 -7.1 19.2
11:00 1027 30.33 857 25.31 8.5 47.4 33 -6.8 19.8
11:05 1027 30.33 857 25.31 8.7 47.6 31 -7.5 18.6
11:10 1027 30.33 856 25.28 10 50 30 -6.7 19.9
11:15 1027 30.33 856 25.28 10.4 50.6 30 -6.5 20.3
11:20 1027 30.33 856 25.28 10.4 50.7 30 -6.3 20.6
11:25 1027 30.33 856 25.28 10.1 50.1 32 -5.9 21.5
11:30 1027 30.33 856 25.28 9.3 48.7 32 -6.4 20.5
11:35 1027 30.33 856 25.28 9.9 49.7 31 -6.4 20.4
11:40 1027 30.33 856 25.28 9.9 49.9 31 -6.2 20.9
11:45 1027 30.33 856 25.28 10.2 50.4 30 -6.5 20.4
11:50 1027 30.33 856 25.28 10.2 50.3 31 -6.1 21.1
11:55 1026 30.3 856 25.28 9.7 49.4 31 -6.7 20
12:00 1026 30.3 856 25.28 10.4 50.7 30 -6.4 20.5
12:05 1026 30.3 856 25.28 10.4 50.8 33 -5.2 22.6
12:10 1026 30.3 855 25.25 10.2 50.3 32 -5.6 22
12:15 1026 30.3 855 25.25 11.2 52.2 30 -5.6 21.9
12:20 1026 30.3 855 25.25 10.3 50.6 33 -5.2 22.6
12:25 1026 30.3 855 25.25 9.9 49.8 33 -5.5 22.1
12:30 1026 30.3 855 25.25 10.8 51.4 31 -5.7 21.8
12:35 1026 30.3 855 25.25 11.4 52.5 30 -5.4 22.2
12:40 1026 30.3 855 25.25 10.5 50.8 32 -5.7 21.7
12:45 1026 30.3 855 25.25 10.4 50.7 32 -5.4 22.3
12:50 1026 30.3 855 25.25 10.6 51.1 31 -5.6 21.8
12:55 1026 30.3 855 25.25 11.8 53.3 29 -5.6 21.9
13:00 1026 30.3 855 25.25 11.9 53.5 29 -5.6 22
13:05 1026 30.3 855 25.25 12.1 53.7 29 -5.6 21.9
13:10 1025 30.27 855 25.25 12.3 54.2 28 -5.7 21.8
13:15 1025 30.27 855 25.25 12.4 54.4 27 -5.8 21.6
13:20 1025 30.27 855 25.25 12.5 54.5 28 -5.4 22.3
13:25 1025 30.27 854 25.22 12.3 54.1 28 -5.7 21.7
13:30 1025 30.27 854 25.22 11.9 53.5 29 -5.6 22
13:35 1025 30.27 854 25.22 11.4 52.5 30 -5.4 22.2
13:40 1025 30.27 854 25.22 11 51.8 30 -6 21.2
13:45 1025 30.27 854 25.22 11.5 52.8 30 -5.6 22
13:50 1025 30.27 854 25.22 12.2 54 28 -5.8 21.5
13:55 1025 30.27 854 25.22 12.8 55 25 -6.7 20
14:00 1025 30.27 854 25.22 12.9 55.3 24 -7 19.4
14:05 1025 30.27 854 25.22 13.1 55.5 24 -6.9 19.6
14:10 1025 30.27 854 25.22 13.6 56.6 23 -6.9 19.6
14:15 1025 30.27 854 25.22 13.3 56 23 -7.1 19.2
14:20 1025 30.27 854 25.22 13.4 56.1 23 -7.4 18.7
14:25 1024 30.24 854 25.22 13.7 56.7 23 -7.1 19.2
14:30 1024 30.24 854 25.22 14.4 57.9 22 -7.2 19
14:35 1024 30.24 853 25.19 14.5 58.1 22 -7.1 19.2
14:40 1024 30.24 853 25.19 13.9 57 23 -7 19.3
14:45 1024 30.24 853 25.19 13.5 56.3 24 -6.8 19.8
14:50 1024 30.24 853 25.19 13.5 56.3 25 -6.1 21
14:55 1024 30.24 853 25.19 13.4 56.1 24 -6.5 20.3
15:00 1024 30.24 853 25.19 13.7 56.7 25 -6.1 20.9
15:05 1024 30.24 853 25.19 13.8 56.9 24 -6.3 20.7
15:10 1024 30.24 853 25.19 14 57.1 25 -5.9 21.4
15:15 1024 30.24 853 25.19 13.6 56.4 25 -5.9 21.4
15:20 1024 30.24 853 25.19 13.5 56.3 25 -6 21.2
15:25 1024 30.24 853 25.19 13.4 56 26 -5.5 22
15:30 1024 30.24 853 25.19 13 55.3 27 -5.7 21.7
15:35 1024 30.24 853 25.19 13.2 55.7 26 -5.7 21.7
15:40 1023 30.21 853 25.19 13.1 55.5 26 -5.9 21.5
15:45 1023 30.21 853 25.19 13 55.3 26 -5.9 21.3
15:50 1023 30.21 853 25.19 12.9 55.2 26 -5.9 21.4
15:55 1023 30.21 853 25.19 13 55.3 26 -6.1 21.1
16:00 1023 30.21 853 25.19 13.4 56.2 25 -6 21.3
16:05 1023 30.21 853 25.19 13.7 56.7 26 -5.5 22.1
16:10 1023 30.21 852 25.16 13.5 56.2 27 -5.3 22.4
16:15 1023 30.21 852 25.16 12.9 55.2 27 -5.8 21.6
16:20 1023 30.21 852 25.16 13 55.4 26 -5.8 21.6
16:25 1023 30.21 852 25.16 13.3 56 26 -5.7 21.7
16:30 1023 30.21 852 25.16 13.7 56.6 26 -5.7 21.8
16:35 1023 30.21 852 25.16 13.5 56.3 26 -5.7 21.8
16:40 1023 30.21 852 25.16 12.9 55.1 27 -5.9 21.4
16:45 1023 30.21 852 25.16 12.6 54.6 27 -6 21.2
16:50 1023 30.21 852 25.16 12.8 55 27 -5.9 21.4
16:55 1023 30.21 852 25.16 12.6 54.8 28 -5.5 22
17:00 1023 30.21 852 25.16 12.3 54.2 28 -5.4 22.3
17:05 1023 30.21 852 25.16 11.8 53.3 30 -5.3 22.4
17:10 1023 30.21 852 25.16 11.5 52.6 30 -5.5 22.2
17:15 1023 30.21 852 25.16 11.3 52.3 31 -5.3 22.5
17:20 1023 30.21 852 25.16 11.1 52 32 -4.9 23.2
17:25 1023 30.21 852 25.16 10.7 51.2 33 -5 23
17:30 1023 30.21 852 25.16 10.2 50.4 34 -5 22.9
17:35 1023 30.21 852 25.16 10 50 34 -5.1 22.9
17:40 1023 30.21 852 25.16 9.7 49.4 37 -4.3 24.2
17:45 1023 30.21 852 25.16 9.3 48.8 37 -4.7 23.6
17:50 1023 30.21 852 25.16 9.1 48.4 37 -5 23.1
17:55 1023 30.21 852 25.16 9.3 48.8 35 -5.3 22.5
18:00 1023 30.21 852 25.16 9.4 49 34 -5.7 21.7
18:05 1023 30.21 852 25.16 9.3 48.8 34 -5.6 21.8
18:10 1023 30.21 852 25.16 9 48.2 33 -6.4 20.5
18:15 1023 30.21 852 25.16 8.9 48 33 -6.5 20.4
18:20 1023 30.21 852 25.16 8.6 47.4 33 -6.6 20.1
18:25 1023 30.21 852 25.16 8.3 46.9 34 -6.6 20.1
18:30 1023 30.21 852 25.16 7.8 46 35 -6.8 19.7
18:35 1023 30.21 852 25.16 7.7 45.9 32 -7.8 17.9
18:40 1023 30.21 852 25.16 8.1 46.5 31 -8.2 17.3
18:45 1023 30.21 852 25.16 8.2 46.8 29 -8.6 16.5
18:50 1023 30.21 852 25.16 8.5 47.4 29 -8.5 16.7
18:55 1023 30.21 852 25.16 8.4 47.2 30 -8 17.7
19:00 1023 30.21 852 25.16 7.8 46 33 -7.6 18.3
19:05 1023 30.21 852 25.16 7.2 45 34 -7.7 18.2
19:10 1023 30.21 852 25.16 6.8 44.3 34 -7.9 17.8
19:15 1023 30.21 852 25.16 6.8 44.3 33 -8.2 17.3
19:20 1023 30.21 852 25.16 6.7 44.1 33 -8.3 17
19:25 1023 30.21 852 25.16 7 44.6 31 -8.8 16.1
19:30 1023 30.21 852 25.16 7.5 45.6 31 -8.5 16.6
19:35 1023 30.21 852 25.16 7.9 46.2 31 -8.4 16.9
19:40 1023 30.21 852 25.16 7.8 46 30 -8.7 16.3
19:45 1023 30.21 852 25.16 7.1 44.8 32 -8.6 16.5
19:50 1023 30.21 852 25.16 7.2 44.9 30 -9.1 15.6
19:55 1023 30.21 852 25.16 7.6 45.7 30 -9 15.8
20:00 1023 30.21 852 25.16 7.5 45.4 30 -8.9 16
20:05 1023 30.21 852 25.16 7.5 45.4 30 -8.8 16.1
20:10 1023 30.21 852 25.16 7 44.7 32 -8.6 16.6
20:15 1023 30.21 852 25.16 6.5 43.7 33 -8.8 16.1
20:20 1022 30.18 852 25.16 6.5 43.7 33 -8.7 16.3
20:25 1022 30.18 852 25.16 6.5 43.8 32 -8.9 15.9
20:30 1023 30.21 852 25.16 6.6 43.8 32 -9.1 15.6
20:35 1023 30.21 852 25.16 6.5 43.7 32 -9 15.7
20:40 1023 30.21 852 25.16 6.5 43.7 31 -9.5 14.9
20:45 1023 30.21 852 25.16 6.7 44.1 31 -9.2 15.4
20:50 1022 30.18 852 25.16 6.4 43.5 32 -9 15.9
20:55 1022 30.18 852 25.16 5.9 42.7 33 -9.1 15.6
21:00 1022 30.18 852 25.16 6 42.7 33 -9 15.9
21:05 1023 30.21 852 25.16 5.8 42.5 34 -9 15.9
21:10 1023 30.21 852 25.16 6.1 43.1 33 -8.8 16.2
21:15 1022 30.18 852 25.16 6.2 43.1 32 -9.2 15.5
21:20 1022 30.18 852 25.16 6.4 43.6 31 -9.6 14.7
21:25 1022 30.18 852 25.16 6.7 44.1 31 -9.1 15.6
21:30 1022 30.18 852 25.16 6.7 44 31 -9.3 15.2
21:35 1022 30.18 851 25.13 6.5 43.7 32 -9.1 15.6
21:40 1022 30.18 851 25.13 5.9 42.7 34 -8.9 16
21:45 1022 30.18 851 25.13 5.7 42.2 34 -8.8 16.1
21:50 1022 30.18 851 25.13 5.5 41.9 35 -8.9 16.1
21:55 1022 30.18 851 25.13 5.5 42 35 -8.9 16
22:00 1022 30.18 851 25.13 5.6 42.1 34 -9 15.7
22:05 1022 30.18 851 25.13 5.6 42.1 34 -9.3 15.3
22:10 1022 30.18 851 25.13 5.6 42.1 33 -9.6 14.7
22:15 1022 30.18 851 25.13 5.9 42.7 31 -9.8 14.3
22:20 1022 30.18 851 25.13 6.2 43.2 31 -9.5 14.9
22:25 1022 30.18 851 25.13 6.2 43.1 32 -9.3 15.2
22:30 1022 30.18 851 25.13 6.4 43.5 30 -10 14
22:35 1022 30.18 851 25.13 6.6 43.8 31 -9.2 15.4
22:40 1022 30.18 851 25.13 5.9 42.6 33 -9.2 15.4
22:45 1022 30.18 851 25.13 5.5 41.9 33 -9.4 15
22:50 1022 30.18 851 25.13 5.9 42.5 31 -10 14.1
22:55 1022 30.18 851 25.13 5.8 42.5 32 -9.5 14.9
23:00 1022 30.18 851 25.13 6.3 43.3 32 -9.4 15.1
23:05 1022 30.18 851 25.13 6.4 43.4 33 -8.9 16
23:10 1022 30.18 851 25.13 5.7 42.3 32 -9.7 14.6
23:15 1022 30.18 851 25.13 6.4 43.6 31 -9.3 15.3
23:20 1021 30.15 851 25.13 6.1 42.9 33 -9 15.8
23:25 1021 30.15 851 25.13 5.7 42.2 33 -9.4 15
23:30 1021 30.15 851 25.13 5.8 42.4 33 -9.3 15.3
23:35 1021 30.15 851 25.13 6.5 43.7 29 -10.3 13.5
23:40 1021 30.15 851 25.13 6.7 44.1 30 -9.5 14.8
23:45 1021 30.15 851 25.13 6 42.8 32 -9.3 15.3
23:50 1021 30.15 851 25.13 5.2 41.3 35 -9.1 15.7
23:55 1021 30.15 851 25.13 4.9 40.8 35 -9.3 15.3
24:00 1021 30.15 851 25.13 5.3 41.5 34 -9.4 15.1